EST,Max TemperatureF,Mean TemperatureF,Min TemperatureF,Max Dew PointF,MeanDew PointF,Min DewpointF,Max Humidity, Mean Humidity, Min Humidity, Max Sea Level PressureIn, Mean Sea Level PressureIn, Min Sea Level PressureIn, Max VisibilityMiles, Mean VisibilityMiles, Min VisibilityMiles, Max Wind SpeedMPH, Mean Wind SpeedMPH, Max Gust SpeedMPH,PrecipitationIn, CloudCover, Events, WindDirDegrees
2013-1-1,28,26,21,28,26,21,100,100,100,29.92,29.90,29.84,10,2,0,13,8,21,0.00,8,Fog,271
2013-1-2,21,18,15,21,17,14,100,95,74,30.08,29.99,29.89,10,8,1,7,4,,0.00,4,,273
2013-1-3,26,20,15,21,18,14,100,87,74,30.08,30.05,30.01,10,10,10,17,7,29,0.00,2,,256
2013-1-4,23,22,21,23,21,19,100,96,86,30.10,30.07,30.03,10,8,2,22,14,39,0.00,7,,262
2013-1-5,32,26,21,23,21,19,100,84,64,30.26,30.17,30.08,10,10,7,20,12,32,0.00,4,,249
2013-1-6,32,30,28,30,27,23,100,87,75,30.08,30.01,29.94,10,9,2,15,11,23,0.00,8,,253
2013-1-7,30,26,23,28,24,19,100,95,64,30.35,30.25,30.09,10,6,0,15,9,23,0.00,5,Fog,248
2013-1-8,41,34,28,27,21,12,70,58,41,30.31,30.27,30.19,10,10,10,15,10,21,0.00,0,,222
2013-1-9,42,38,33,43,32,21,100,82,56,30.38,30.28,30.21,10,9,0,21,11,36,0.00,4,Fog,239
2013-1-10,42,36,30,34,27,18,100,75,36,30.52,30.43,30.32,10,10,10,22,11,31,0.00,0,,181
2013-1-11,50,42,33,50,37,28,100,92,75,30.31,30.13,30.02,10,8,0,22,17,30,0.00,6,Fog,165
2013-1-12,57,54,50,55,52,50,100,97,88,30.13,30.10,30.05,10,9,2,14,9,28,0.00,5,,226
2013-1-13,60,56,51,54,50,46,100,83,63,30.06,30.00,29.94,10,10,3,15,10,25,0.00,4,,196
2013-1-14,53,40,28,54,37,28,100,99,93,30.25,30.14,29.96,10,5,0,14,7,24,0.00,8,Fog,291
2013-1-15,32,30,28,32,30,28,100,100,100,30.24,30.14,29.99,7,2,0,17,5,17,0.00,8,Fog,106
2013-1-16,33,30,28,34,31,28,100,100,100,30.00,29.89,29.79,10,4,0,12,5,17,0.00,7,Fog,218
2013-1-17,30,28,26,30,27,27,100,100,100,30.07,30.00,29.93,10,6,1,12,6,17,0.00,6,,286
2013-1-18,30,22,14,27,14,1,100,73,29,30.33,30.22,30.03,10,10,7,17,11,29,0.00,3,,262
2013-1-19,46,38,30,16,11,3,41,33,25,30.22,30.08,29.85,10,10,10,22,14,32,0.00,0,,226
2013-1-20,39,30,21,28,16,0,75,54,25,29.98,29.88,29.77,10,10,10,26,17,47,0.00,2,,267
2013-1-21,28,18,8,21,12,1,100,75,47,29.96,29.85,29.74,10,7,0,17,9,26,0.00,8,Fog,263
2013-1-22,8,4,0,1,-3,-6,85,73,61,30.02,29.95,29.83,10,6,1,18,13,29,0.00,6,,277
2013-1-23,8,4,0,0,-2,-4,92,82,57,30.06,30.03,30.01,10,6,2,14,12,24,0.00,6,,277
2013-1-24,,,,,,,,,,,,,,,,,,,,,,
2013-1-25,,,,,,,,,,,,,,,,,,,,,,
2013-1-26,,,,,,,,,,,,,,,,,,,,,,
2013-1-27,30,24,17,19,17,12,86,68,47,30.38,30.31,30.26,10,10,10,15,7,,0.00,2,,139
2013-1-28,46,36,26,46,38,19,100,97,74,30.25,30.10,30.03,10,4,0,21,13,38,0.00,8,Fog,222
2013-1-29,60,53,46,54,49,46,100,92,68,30.09,30.03,29.92,10,6,0,17,12,24,0.00,5,Fog,222
2013-1-30,64,54,42,52,50,43,100,89,64,29.91,29.60,29.28,10,8,1,24,14,39,0.00,4,,199
2013-1-31,42,30,17,43,20,9,100,91,68,29.73,29.55,29.24,10,5,0,29,18,47,0.00,7,Fog,263